createdAt,value
2023-04-22T00:02:14.387Z,90.51
2023-04-22T00:05:20.539Z,90.86
2023-04-22T00:08:25.585Z,90.94
2023-04-22T00:11:28.420Z,90.71
2023-04-22T00:14:31.082Z,91.10
2023-04-22T00:17:34.109Z,91.49
2023-04-22T00:20:36.868Z,92.05
2023-04-22T00:23:41.012Z,91.71
2023-04-22T00:26:43.747Z,91.85
2023-04-22T00:29:46.486Z,92.05
2023-04-22T00:32:49.616Z,92.40
2023-04-22T00:35:54.647Z,92.57
2023-04-22T00:38:58.716Z,92.37
2023-04-22T00:42:01.956Z,92.82
2023-04-22T00:45:05.860Z,92.62
2023-04-22T00:48:09.422Z,92.71
2023-04-22T00:51:12.204Z,92.19
2023-04-22T00:54:17.247Z,91.96
2023-04-22T00:57:20.258Z,91.53
2023-04-22T01:00:27.211Z,91.91
2023-04-22T01:03:31.483Z,91.80
2023-04-22T01:06:36.391Z,92.72
2023-04-22T01:09:42.214Z,92.71
2023-04-22T01:12:45.275Z,92.98
2023-04-22T01:15:48.452Z,92.81
2023-04-22T01:18:52.975Z,92.47
2023-04-22T01:21:57.106Z,93.31
2023-04-22T01:25:01.895Z,93.40
2023-04-22T01:28:05.077Z,93.82
2023-04-22T01:31:07.910Z,94.13
2023-04-22T01:34:11.758Z,93.92
2023-04-22T01:37:14.524Z,93.42
2023-04-22T01:40:22.577Z,92.63
2023-04-22T01:43:25.439Z,92.92
2023-04-22T01:46:28.242Z,93.51
2023-04-22T01:49:31.096Z,93.64
2023-04-22T01:52:34.288Z,93.62
2023-04-22T01:55:39.324Z,93.33
2023-04-22T01:58:41.995Z,93.27
2023-04-22T02:01:44.688Z,92.18
2023-04-22T02:04:47.537Z,93.13
2023-04-22T02:07:52.803Z,92.93
2023-04-22T02:10:58.217Z,92.80
2023-04-22T02:14:00.893Z,91.40
2023-04-22T02:17:04.522Z,91.29
2023-04-22T02:20:08.611Z,91.48
2023-04-22T02:23:11.859Z,91.91
2023-04-22T02:26:15.914Z,91.72
2023-04-22T02:29:18.570Z,91.91
2023-04-22T02:32:21.370Z,91.55
2023-04-22T02:35:24.107Z,90.72
2023-04-22T02:38:26.857Z,91.31
2023-04-22T02:41:31.005Z,90.95
2023-04-22T02:44:33.736Z,91.01
2023-04-22T02:47:36.480Z,90.94
2023-04-22T02:50:39.241Z,91.37
2023-04-22T02:53:41.908Z,91.40
2023-04-22T02:56:46.151Z,91.41
2023-04-22T02:59:48.820Z,90.76
2023-04-22T03:02:51.702Z,91.05
2023-04-22T03:05:55.376Z,91.19
2023-04-22T03:08:58.054Z,90.33
2023-04-22T03:12:02.664Z,90.01
2023-04-22T03:15:06.199Z,89.49
2023-04-22T03:18:09.056Z,90.23
2023-04-22T03:21:11.801Z,90.83
2023-04-22T03:24:14.508Z,90.84
2023-04-22T03:27:21.498Z,90.80
2023-04-22T03:30:24.363Z,90.29
2023-04-22T03:33:27.344Z,89.74
2023-04-22T03:36:30.058Z,90.09
2023-04-22T03:39:32.896Z,91.00
2023-04-22T03:42:36.951Z,90.82
2023-04-22T03:45:39.779Z,91.36
2023-04-22T03:48:42.480Z,91.27
2023-04-22T03:51:45.215Z,91.69
2023-04-22T03:54:48.409Z,91.42
2023-04-22T03:57:52.423Z,91.31
2023-04-22T04:00:55.372Z,91.60
2023-04-22T04:03:58.291Z,91.68
2023-04-22T04:07:01.891Z,91.44
2023-04-22T04:10:04.945Z,91.44
2023-04-22T04:13:09.150Z,91.65
2023-04-22T04:16:11.931Z,91.79
2023-04-22T04:19:14.711Z,91.98
2023-04-22T04:22:20.835Z,91.73
2023-04-22T04:25:23.629Z,92.20
2023-04-22T04:28:29.708Z,92.73
2023-04-22T04:31:32.512Z,92.88
2023-04-22T04:34:37.683Z,92.89
2023-04-22T04:37:40.565Z,93.28
2023-04-22T04:40:46.329Z,92.99
2023-04-22T04:43:50.539Z,92.76
2023-04-22T04:46:54.722Z,92.94
2023-04-22T04:49:58.589Z,92.88
2023-04-22T04:53:02.154Z,92.78
2023-04-22T04:56:05.068Z,92.65
2023-04-22T04:59:09.088Z,93.31
2023-04-22T05:02:12.256Z,93.30
2023-04-22T05:05:15.125Z,92.67
2023-04-22T05:08:18.196Z,92.71
2023-04-22T05:11:22.960Z,92.38
2023-04-22T05:14:26.952Z,92.57
2023-04-22T05:17:31.503Z,91.98
2023-04-22T05:20:36.154Z,91.49
2023-04-22T05:23:39.653Z,91.37
2023-04-22T05:26:42.565Z,91.96
2023-04-22T05:29:46.600Z,92.48
2023-04-22T05:32:49.343Z,92.84
2023-04-22T05:35:52.433Z,92.88
2023-04-22T05:38:55.157Z,91.26
2023-04-22T05:41:57.860Z,90.84
2023-04-22T05:45:01.916Z,91.17
2023-04-22T05:48:04.932Z,90.37
2023-04-22T05:51:07.658Z,90.55
2023-04-22T05:54:10.527Z,90.91
2023-04-22T05:57:13.340Z,90.86
2023-04-22T06:00:18.907Z,90.84
2023-04-22T06:03:21.733Z,90.30
2023-04-22T06:06:25.256Z,90.31
2023-04-22T06:09:28.854Z,90.04
2023-04-22T06:12:31.528Z,89.87
2023-04-22T06:15:36.963Z,89.08
2023-04-22T06:18:40.464Z,88.71
2023-04-22T06:21:43.238Z,88.79
2023-04-22T06:24:46.396Z,87.20
2023-04-22T06:27:50.842Z,86.75
2023-04-22T06:30:54.925Z,85.35
2023-04-22T06:33:57.540Z,85.96
2023-04-22T06:37:00.421Z,86.16
2023-04-22T06:40:03.154Z,86.63
2023-04-22T06:43:06.237Z,86.51
2023-04-22T06:46:10.548Z,86.09
2023-04-22T06:49:13.258Z,84.70
2023-04-22T06:52:15.977Z,83.46
2023-04-22T06:55:18.870Z,82.21
2023-04-22T06:58:22.111Z,81.27
2023-04-22T07:01:26.202Z,80.28
2023-04-22T07:04:29.461Z,79.33
2023-04-22T07:07:32.288Z,78.80
2023-04-22T07:10:35.323Z,78.44
2023-04-22T07:13:37.966Z,78.13
2023-04-22T07:16:42.308Z,77.76
2023-04-22T07:19:45.037Z,76.56
2023-04-22T07:22:47.725Z,76.00
2023-04-22T07:25:50.433Z,76.94
2023-04-22T07:28:53.161Z,76.32
2023-04-22T07:31:57.812Z,75.79
2023-04-22T07:35:00.536Z,73.71
2023-04-22T07:38:03.691Z,75.08
2023-04-22T07:41:06.332Z,74.57
2023-04-22T07:44:10.526Z,75.28
2023-04-22T07:47:14.530Z,74.09
2023-04-22T07:50:17.197Z,74.44
2023-04-22T07:53:20.696Z,74.86
2023-04-22T07:56:23.389Z,74.55
2023-04-22T07:59:26.137Z,74.82
2023-04-22T08:02:30.254Z,72.04
2023-04-22T08:05:33.097Z,72.54
2023-04-22T08:08:35.785Z,71.08
2023-04-22T08:11:38.499Z,72.15
2023-04-22T08:14:41.560Z,70.72
2023-04-22T08:17:46.001Z,71.49
2023-04-22T08:20:49.065Z,72.02
2023-04-22T08:23:52.117Z,70.55
2023-04-22T08:26:54.812Z,69.79
2023-04-22T08:29:57.444Z,69.02
2023-04-22T08:33:01.932Z,67.85
2023-04-22T08:36:04.959Z,68.15
2023-04-22T08:39:07.730Z,66.92
2023-04-22T08:42:10.507Z,68.71
2023-04-22T08:45:14.710Z,66.45
2023-04-22T08:48:20.132Z,67.21
2023-04-22T08:51:23.597Z,66.42
2023-04-22T08:54:26.544Z,66.74
2023-04-22T08:57:30.663Z,65.17
2023-04-22T09:00:34.550Z,65.12
2023-04-22T09:03:41.050Z,63.75
2023-04-22T09:06:43.788Z,65.06
2023-04-22T09:09:46.871Z,65.54
2023-04-22T09:12:50.268Z,65.87
2023-04-22T09:15:52.931Z,64.48
2023-04-22T09:18:56.951Z,62.51
2023-04-22T09:21:59.864Z,63.39
2023-04-22T09:25:02.563Z,63.79
2023-04-22T09:28:05.381Z,63.00
2023-04-22T09:31:15.100Z,61.34
2023-04-22T09:34:19.844Z,60.22
2023-04-22T09:37:31.018Z,59.90
2023-04-22T09:40:44.249Z,58.25
2023-04-22T09:43:47.015Z,56.96
2023-04-22T09:46:51.299Z,57.83
2023-04-22T09:49:55.383Z,57.80
2023-04-22T09:53:00.685Z,56.69
2023-04-22T09:56:05.771Z,55.89
2023-04-22T09:59:09.872Z,55.39
2023-04-22T10:02:13.214Z,55.89
2023-04-22T10:05:18.021Z,53.60
2023-04-22T10:08:20.728Z,53.05
2023-04-22T10:11:23.521Z,52.88
2023-04-22T10:14:26.935Z,53.19
2023-04-22T10:17:32.834Z,47.36
2023-04-22T10:20:39.926Z,46.77
2023-04-22T10:23:48.105Z,46.41
2023-04-22T10:26:56.653Z,44.89
2023-04-22T10:29:59.685Z,44.78
2023-04-22T10:33:42.142Z,43.30
2023-04-22T10:36:57.424Z,43.40
2023-04-22T10:40:09.136Z,43.40
2023-04-22T10:43:13.907Z,43.21
2023-04-22T10:46:53.959Z,43.05
2023-04-22T10:50:17.819Z,40.94
2023-04-22T10:53:38.541Z,41.85
2023-04-22T10:57:03.763Z,41.58
2023-04-22T11:00:25.164Z,41.50
2023-04-22T11:03:30.140Z,40.51
2023-04-22T11:06:33.213Z,40.62
2023-04-22T11:09:41.351Z,41.01
2023-04-22T11:12:45.123Z,40.99
2023-04-22T11:15:50.304Z,41.11
2023-04-22T11:18:53.424Z,40.25
2023-04-22T11:21:57.634Z,39.80
2023-04-22T11:25:02.607Z,40.22
2023-04-22T11:28:05.268Z,40.17
2023-04-22T11:31:10.915Z,40.28
2023-04-22T11:34:13.691Z,38.91
2023-04-22T11:37:20.728Z,38.31
2023-04-22T11:40:31.542Z,37.92
2023-04-22T11:43:34.892Z,37.08
2023-04-22T11:46:39.580Z,37.30
2023-04-22T11:49:42.309Z,37.11
2023-04-22T11:52:47.079Z,37.04
2023-04-22T11:55:52.937Z,36.42
2023-04-22T11:58:55.692Z,36.00
2023-04-22T12:01:58.717Z,35.35
2023-04-22T12:05:03.673Z,35.60
2023-04-22T12:08:09.060Z,35.59
2023-04-22T12:11:13.951Z,36.07
2023-04-22T12:14:16.631Z,35.80
2023-04-22T12:17:24.836Z,35.48
2023-04-22T12:20:33.564Z,34.67
2023-04-22T12:23:43.473Z,35.69
2023-04-22T12:26:47.517Z,35.82
2023-04-22T12:29:54.764Z,36.02
2023-04-22T12:32:58.093Z,35.46
2023-04-22T12:36:00.828Z,35.21
2023-04-22T12:39:04.793Z,35.29
2023-04-22T12:42:09.327Z,34.06
2023-04-22T12:45:12.530Z,33.39
2023-04-22T12:48:15.472Z,32.78
2023-04-22T12:51:20.344Z,32.17
2023-04-22T12:54:23.808Z,31.68
2023-04-22T12:57:28.398Z,32.13
2023-04-22T13:00:31.349Z,31.75
2023-04-22T13:03:34.155Z,31.36
2023-04-22T13:09:45.480Z,31.19
2023-04-22T13:12:49.895Z,31.11
2023-04-22T13:15:54.152Z,31.35
2023-04-22T13:18:57.823Z,31.89
2023-04-22T13:22:00.462Z,32.32
2023-04-22T13:25:04.828Z,32.76
2023-04-22T13:28:08.901Z,33.11
2023-04-22T13:31:11.588Z,33.02
2023-04-22T13:34:15.351Z,33.66
2023-04-22T13:37:20.062Z,33.96
2023-04-22T13:40:23.145Z,33.99
2023-04-22T13:43:27.200Z,34.26
2023-04-22T13:46:29.855Z,34.90
2023-04-22T13:49:32.714Z,35.44
2023-04-22T13:52:35.430Z,35.74
2023-04-22T13:55:38.450Z,36.16
2023-04-22T13:58:43.451Z,35.92
2023-04-22T14:01:46.162Z,35.88
2023-04-22T14:04:48.835Z,36.19
2023-04-22T14:07:51.862Z,36.17
2023-04-22T14:10:55.366Z,36.56
2023-04-22T14:13:59.412Z,37.02
2023-04-22T14:17:02.326Z,37.72
2023-04-22T14:20:06.891Z,38.30
2023-04-22T14:23:11.806Z,38.46
2023-04-22T14:26:14.473Z,38.93
2023-04-22T14:29:19.052Z,39.25
2023-04-22T14:32:22.309Z,39.79
2023-04-22T14:35:25.007Z,39.78
2023-04-22T14:38:28.068Z,40.10
2023-04-22T14:41:30.757Z,40.52
2023-04-22T14:44:34.897Z,40.66
2023-04-22T14:47:37.708Z,40.52
2023-04-22T14:50:40.608Z,40.79
2023-04-22T14:53:43.901Z,40.57
2023-04-22T14:56:47.477Z,40.21
2023-04-22T14:59:51.550Z,40.13
2023-04-22T15:02:54.944Z,40.18
2023-04-22T15:05:58.466Z,39.90
2023-04-22T15:09:01.861Z,39.69
2023-04-22T15:12:05.676Z,39.76
2023-04-22T15:15:13.262Z,39.59
2023-04-22T15:18:15.932Z,39.75
2023-04-22T15:21:18.700Z,39.87
2023-04-22T15:24:21.399Z,40.02
2023-04-22T15:27:24.137Z,40.12
2023-04-22T15:30:28.277Z,40.19
2023-04-22T15:33:30.952Z,40.33
2023-04-22T15:36:34.140Z,40.08
2023-04-22T15:39:36.816Z,39.72
2023-04-22T15:42:39.591Z,40.12
2023-04-22T15:45:43.785Z,40.18
2023-04-22T15:48:47.466Z,39.73
2023-04-22T15:51:50.301Z,40.11
2023-04-22T15:54:53.032Z,40.10
2023-04-22T15:57:55.878Z,40.36
2023-04-22T16:01:11.423Z,40.26
2023-04-22T16:04:21.209Z,40.62
2023-04-22T16:07:24.118Z,40.89
2023-04-22T16:10:27.950Z,41.55
2023-04-22T16:13:30.910Z,41.75
2023-04-22T16:16:34.979Z,41.72
2023-04-22T16:19:37.856Z,42.22
2023-04-22T16:22:40.570Z,42.04
2023-04-22T16:25:43.241Z,42.60
2023-04-22T16:28:46.932Z,42.40
2023-04-22T16:31:51.213Z,42.73
2023-04-22T16:34:53.918Z,42.54
2023-04-22T16:37:56.645Z,43.21
2023-04-22T16:40:59.302Z,43.88
2023-04-22T16:44:02.155Z,44.75
2023-04-22T16:47:06.486Z,45.33
2023-04-22T16:50:12.314Z,45.67
2023-04-22T16:53:15.014Z,45.74
2023-04-22T16:56:17.657Z,45.84
2023-04-22T16:59:20.339Z,46.04
2023-04-22T17:02:24.572Z,46.22
2023-04-22T17:05:27.381Z,46.72
2023-04-22T17:08:30.047Z,47.21
2023-04-22T17:11:32.994Z,47.98
2023-04-22T17:14:35.629Z,47.67
2023-04-22T17:17:39.625Z,47.84
2023-04-22T17:20:42.680Z,48.39
2023-04-22T17:23:45.712Z,48.71
2023-04-22T17:26:48.351Z,49.16
2023-04-22T17:29:51.034Z,49.11
2023-04-22T17:32:55.217Z,49.89
2023-04-22T17:35:58.045Z,50.27
2023-04-22T17:39:00.734Z,50.80
2023-04-22T17:42:03.651Z,51.35
2023-04-22T17:45:07.144Z,51.63
2023-04-22T17:48:11.254Z,51.63
2023-04-22T17:51:16.991Z,51.66
2023-04-22T17:54:19.703Z,52.42
2023-04-22T17:57:22.454Z,52.96
2023-04-22T18:00:25.774Z,53.70
2023-04-22T18:03:30.576Z,54.44
2023-04-22T18:06:33.564Z,55.09
2023-04-22T18:09:36.284Z,56.67
2023-04-22T18:12:39.328Z,58.41
2023-04-22T18:15:42.073Z,58.99
2023-04-22T18:18:46.139Z,59.32
2023-04-22T18:21:59.534Z,59.27
2023-04-22T18:25:03.623Z,58.89
2023-04-22T18:28:06.326Z,59.42
2023-04-22T18:31:09.308Z,60.56
2023-04-22T18:34:15.623Z,60.35
2023-04-22T18:37:18.333Z,60.12
2023-04-22T18:40:21.633Z,59.98
2023-04-22T18:43:24.361Z,60.01
2023-04-22T18:46:27.105Z,59.92
2023-04-22T18:49:33.659Z,60.34
2023-04-22T18:52:36.828Z,61.33
2023-04-22T18:55:39.570Z,62.29
2023-04-22T18:58:42.266Z,63.46
2023-04-22T19:01:45.810Z,63.27
2023-04-22T19:04:50.174Z,63.83
2023-04-22T19:07:53.068Z,63.79
2023-04-22T19:10:56.750Z,64.13
2023-04-22T19:13:59.513Z,64.22
2023-04-22T19:17:03.153Z,64.34
2023-04-22T19:20:08.718Z,64.60
2023-04-22T19:23:11.927Z,64.90
2023-04-22T19:26:14.668Z,64.99
2023-04-22T19:29:17.366Z,64.96
2023-04-22T19:32:21.095Z,64.56
2023-04-22T19:35:27.201Z,64.64
2023-04-22T19:38:29.978Z,64.39
2023-04-22T19:41:33.465Z,63.44
2023-04-22T19:44:36.327Z,63.28
2023-04-22T19:47:39.871Z,63.75
2023-04-22T19:50:45.193Z,63.83
2023-04-22T19:53:48.853Z,63.63
2023-04-22T19:56:53.049Z,63.74
2023-04-22T19:59:56.456Z,63.89
2023-04-22T20:03:00.347Z,63.66
2023-04-22T20:06:06.014Z,63.62
2023-04-22T20:09:10.468Z,64.04
2023-04-22T20:12:13.700Z,63.43
2023-04-22T20:15:17.188Z,61.76
2023-04-22T20:18:20.246Z,61.23
2023-04-22T20:21:25.013Z,61.51
2023-04-22T20:24:29.717Z,60.82
2023-04-22T20:27:33.970Z,60.33
2023-04-22T20:30:37.446Z,60.10
2023-04-22T20:33:40.500Z,59.91
2023-04-22T20:36:44.955Z,59.89
2023-04-22T20:39:49.624Z,60.43
2023-04-22T20:42:52.475Z,60.56
2023-04-22T20:45:55.178Z,60.39
2023-04-22T20:48:57.904Z,60.26
2023-04-22T20:52:02.286Z,61.15
2023-04-22T20:55:06.499Z,61.81
2023-04-22T20:58:09.322Z,62.71
2023-04-22T21:01:16.231Z,63.73
2023-04-22T21:04:19.462Z,65.33
2023-04-22T21:07:25.043Z,66.16
2023-04-22T21:10:28.432Z,67.07
2023-04-22T21:13:31.754Z,68.26
2023-04-22T21:16:39.462Z,69.08
2023-04-22T21:19:48.091Z,69.69
2023-04-22T21:22:54.847Z,70.23
2023-04-22T21:26:00.799Z,71.13
2023-04-22T21:29:07.490Z,71.14
2023-04-22T21:32:10.327Z,71.52
2023-04-22T21:35:13.125Z,72.38
2023-04-22T21:38:17.166Z,72.86
2023-04-22T21:41:19.858Z,72.25
2023-04-22T21:44:22.545Z,71.60
2023-04-22T21:47:25.308Z,71.42
2023-04-22T21:50:30.202Z,71.35
2023-04-22T21:53:34.430Z,70.28
2023-04-22T21:56:37.167Z,70.22
2023-04-22T21:59:39.923Z,70.13
2023-04-22T22:02:43.088Z,69.84
2023-04-22T22:05:46.000Z,69.93
2023-04-22T22:08:50.954Z,69.50
2023-04-22T22:11:53.656Z,69.77
2023-04-22T22:14:56.378Z,69.58
2023-04-22T22:17:59.428Z,69.92
2023-04-22T22:21:02.192Z,69.99
2023-04-22T22:24:06.792Z,69.78
2023-04-22T22:27:09.800Z,69.79
2023-04-22T22:30:13.569Z,70.25
2023-04-22T22:33:16.351Z,70.17
2023-04-22T22:36:20.272Z,70.43
2023-04-22T22:39:24.479Z,71.26
2023-04-22T22:42:27.156Z,71.28
2023-04-22T22:45:29.869Z,71.08
2023-04-22T22:48:32.793Z,71.81
2023-04-22T22:51:37.572Z,72.01
2023-04-22T22:54:42.184Z,72.55
2023-04-22T22:57:45.265Z,73.78
2023-04-22T23:00:48.578Z,74.51
2023-04-22T23:03:51.760Z,74.97
2023-04-22T23:06:55.006Z,75.28
2023-04-22T23:09:59.295Z,75.78
2023-04-22T23:13:02.140Z,76.41
2023-04-22T23:16:05.481Z,77.21
2023-04-22T23:19:08.531Z,77.76
2023-04-22T23:22:12.700Z,77.78
2023-04-22T23:25:17.922Z,77.71
2023-04-22T23:28:21.129Z,77.31
2023-04-22T23:31:25.136Z,76.70
2023-04-22T23:34:30.085Z,76.79
2023-04-22T23:37:35.558Z,76.25
2023-04-22T23:40:39.670Z,76.35
2023-04-22T23:43:42.321Z,76.28
2023-04-22T23:46:45.335Z,76.38
2023-04-22T23:49:48.850Z,76.34
2023-04-22T23:52:51.513Z,75.99
2023-04-22T23:55:56.439Z,75.95
2023-04-22T23:58:59.645Z,76.01
